Punta Gorda, FL

9:09 AM EST on February 28, 2015 (GMT -0500)
Charlotte County | Change Station
CLOSE
Current Station
Airport
Location: Punta Gorda,
Elevation: 26 ft
Nearby Weather Stations

Elev 26 ft 26.92 °N, 81.99 °W | Updated 16 minutes ago

Overcast
Overcast
64 °F
Feels Like 64 °F
N
14
Wind Variable Wind from ENE

Today
High -- | Low -- °F
--% Chance of Precip.
Yesterday
High -- | Low -- °F
Precip. -- in
6:53 AM 6:28 PM
Waxing Gibbous, 77% visible
Pressure 30.29 in
Visibility 5.0 miles
Clouds Mostly Cloudy 600 ft
Mostly Cloudy 1400 ft
Overcast 6500 ft
Dew Point 62 °F
Humidity 93%
Rainfall 0.00 in
Snow Depth Not available.
UV 1 out of 12
Pollen 10.50 out of 12
Air Quality Not available.
Flu Activity Not available.
METAR KPGD 281353Z 06012KT 5SM BR BKN006 BKN014 OVC065 18/17 A3029 RMK AO2 SLP257 T01780167

More Conditions Fewer Conditions

Pressure 30.29 in
Visibility 5.0 miles
Clouds Mostly Cloudy 600 ft
Mostly Cloudy 1400 ft
Overcast 6500 ft
Dew Point 62 °F
Humidity 93%
Rainfall 0.00 in
Snow Depth Not available.
UV 1 out of 12
Pollen 10.50 out of 12
Air Quality Not available.
Flu Activity Not available.
METAR KPGD 281353Z 06012KT 5SM BR BKN006 BKN014 OVC065 18/17 A3029 RMK AO2 SLP257 T01780167

More Conditions Fewer Conditions

10-Day Weather Forecast

Almanac

Astronomy

Feb. 28, 2015 Rise Set
Actual Time
Civil Twilight
Nautical Twilight
Astronomical Twilight
Moon
Length of Visible Light
Length of Day
Tomorrow will be .
, % of the Moon is Illuminated

Today's Extremes

State Highs State Lows

Community

WunderPhotos

Upload Photos

1,801,020 photos uploaded!

WunderBlogs® & News

Nearby

Air Quality

  Air Quality AQ Index Pollutant
Not available.

Snow Depth

Station Depth Elevation

Earthquake Activity

City Distance Mag. Time & Date
Minimum magnitude displayed is 2.5.

Coastal Water Temperatures

Place Temperature

Nearby Weather Stations